sensor_id;sensor_type;location;lat;lon;timestamp;P1;durP1;ratioP1;P2;durP2;ratioP2
55076;SDS011;40971;44.702;11.030;2022-10-16T00:00:28;37.45;;;19.98;;
55076;SDS011;40971;44.702;11.030;2022-10-16T00:02:53;36.85;;;20.15;;
55076;SDS011;40971;44.702;11.030;2022-10-16T00:05:19;36.72;;;19.77;;
55076;SDS011;40971;44.702;11.030;2022-10-16T00:07:44;35.08;;;19.40;;
55076;SDS011;40971;44.702;11.030;2022-10-16T00:10:09;34.30;;;18.23;;
55076;SDS011;40971;44.702;11.030;2022-10-16T00:12:35;37.67;;;20.20;;
55076;SDS011;40971;44.702;11.030;2022-10-16T00:15:00;35.83;;;19.58;;
55076;SDS011;40971;44.702;11.030;2022-10-16T00:17:26;38.60;;;20.23;;
55076;SDS011;40971;44.702;11.030;2022-10-16T00:19:51;43.42;;;21.67;;
55076;SDS011;40971;44.702;11.030;2022-10-16T00:22:16;37.20;;;20.55;;
55076;SDS011;40971;44.702;11.030;2022-10-16T00:24:42;39.10;;;21.23;;
55076;SDS011;40971;44.702;11.030;2022-10-16T00:27:07;45.17;;;21.33;;
55076;SDS011;40971;44.702;11.030;2022-10-16T00:29:33;48.08;;;21.55;;
55076;SDS011;40971;44.702;11.030;2022-10-16T00:31:59;42.67;;;21.50;;
55076;SDS011;40971;44.702;11.030;2022-10-16T00:34:24;39.55;;;20.90;;
55076;SDS011;40971;44.702;11.030;2022-10-16T00:36:50;36.80;;;19.75;;
55076;SDS011;40971;44.702;11.030;2022-10-16T00:39:15;38.88;;;18.67;;
55076;SDS011;40971;44.702;11.030;2022-10-16T00:41:41;41.00;;;21.63;;
55076;SDS011;40971;44.702;11.030;2022-10-16T00:50:11;42.97;;;20.92;;
55076;SDS011;40971;44.702;11.030;2022-10-16T00:52:39;39.58;;;21.17;;
55076;SDS011;40971;44.702;11.030;2022-10-16T00:55:08;42.20;;;20.23;;
55076;SDS011;40971;44.702;11.030;2022-10-16T00:57:34;42.17;;;19.77;;
55076;SDS011;40971;44.702;11.030;2022-10-16T01:00:01;39.53;;;19.70;;
55076;SDS011;40971;44.702;11.030;2022-10-16T01:02:29;39.97;;;18.10;;
55076;SDS011;40971;44.702;11.030;2022-10-16T01:04:54;49.75;;;19.58;;
55076;SDS011;40971;44.702;11.030;2022-10-16T01:07:24;37.97;;;19.23;;
55076;SDS011;40971;44.702;11.030;2022-10-16T01:10:14;38.35;;;18.45;;
55076;SDS011;40971;44.702;11.030;2022-10-16T01:15:43;39.60;;;18.90;;
55076;SDS011;40971;44.702;11.030;2022-10-16T01:21:01;53.92;;;23.13;;
55076;SDS011;40971;44.702;11.030;2022-10-16T01:31:27;38.28;;;19.63;;
55076;SDS011;40971;44.702;11.030;2022-10-16T01:33:59;43.15;;;19.30;;
55076;SDS011;40971;44.702;11.030;2022-10-16T01:36:29;38.15;;;20.90;;
55076;SDS011;40971;44.702;11.030;2022-10-16T01:39:02;37.63;;;18.90;;
55076;SDS011;40971;44.702;11.030;2022-10-16T01:41:31;40.92;;;21.77;;
55076;SDS011;40971;44.702;11.030;2022-10-16T01:44:07;38.08;;;19.25;;
55076;SDS011;40971;44.702;11.030;2022-10-16T01:46:38;41.80;;;20.65;;
55076;SDS011;40971;44.702;11.030;2022-10-16T01:49:06;43.95;;;20.58;;
55076;SDS011;40971;44.702;11.030;2022-10-16T01:51:34;41.42;;;20.88;;
55076;SDS011;40971;44.702;11.030;2022-10-16T01:54:01;36.65;;;21.35;;
55076;SDS011;40971;44.702;11.030;2022-10-16T01:56:29;43.75;;;21.70;;
55076;SDS011;40971;44.702;11.030;2022-10-16T01:59:14;41.92;;;22.92;;
55076;SDS011;40971;44.702;11.030;2022-10-16T02:01:50;42.72;;;24.05;;
55076;SDS011;40971;44.702;11.030;2022-10-16T02:04:29;37.78;;;19.27;;
55076;SDS011;40971;44.702;11.030;2022-10-16T02:07:08;43.17;;;20.92;;
55076;SDS011;40971;44.702;11.030;2022-10-16T02:09:35;37.08;;;19.65;;
55076;SDS011;40971;44.702;11.030;2022-10-16T02:12:04;39.45;;;21.50;;
55076;SDS011;40971;44.702;11.030;2022-10-16T02:14:37;37.15;;;20.73;;
55076;SDS011;40971;44.702;11.030;2022-10-16T02:17:09;44.00;;;21.65;;
55076;SDS011;40971;44.702;11.030;2022-10-16T02:19:36;38.42;;;20.77;;
55076;SDS011;40971;44.702;11.030;2022-10-16T02:22:03;35.35;;;18.10;;
55076;SDS011;40971;44.702;11.030;2022-10-16T02:24:37;42.97;;;22.25;;
55076;SDS011;40971;44.702;11.030;2022-10-16T02:30:14;31.23;;;18.48;;
55076;SDS011;40971;44.702;11.030;2022-10-16T02:32:45;36.45;;;19.88;;
55076;SDS011;40971;44.702;11.030;2022-10-16T02:35:15;44.15;;;23.02;;
55076;SDS011;40971;44.702;11.030;2022-10-16T02:37:43;38.40;;;20.45;;
55076;SDS011;40971;44.702;11.030;2022-10-16T02:40:10;35.10;;;18.13;;
55076;SDS011;40971;44.702;11.030;2022-10-16T02:42:37;38.55;;;19.58;;
55076;SDS011;40971;44.702;11.030;2022-10-16T02:45:05;32.80;;;18.60;;
55076;SDS011;40971;44.702;11.030;2022-10-16T02:47:32;43.72;;;21.23;;
55076;SDS011;40971;44.702;11.030;2022-10-16T02:49:58;38.80;;;19.83;;
55076;SDS011;40971;44.702;11.030;2022-10-16T02:52:23;39.97;;;20.65;;
55076;SDS011;40971;44.702;11.030;2022-10-16T02:54:49;41.30;;;20.50;;
55076;SDS011;40971;44.702;11.030;2022-10-16T02:57:14;42.70;;;20.88;;
55076;SDS011;40971;44.702;11.030;2022-10-16T02:59:40;38.33;;;20.65;;
55076;SDS011;40971;44.702;11.030;2022-10-16T03:02:05;38.25;;;19.83;;
55076;SDS011;40971;44.702;11.030;2022-10-16T03:04:31;40.75;;;19.88;;
55076;SDS011;40971;44.702;11.030;2022-10-16T03:06:57;41.85;;;21.20;;
55076;SDS011;40971;44.702;11.030;2022-10-16T03:09:22;38.38;;;21.10;;
55076;SDS011;40971;44.702;11.030;2022-10-16T03:11:47;36.75;;;20.17;;
55076;SDS011;40971;44.702;11.030;2022-10-16T03:14:13;42.63;;;21.73;;
55076;SDS011;40971;44.702;11.030;2022-10-16T03:16:39;39.25;;;20.98;;
55076;SDS011;40971;44.702;11.030;2022-10-16T03:19:04;34.72;;;19.20;;
55076;SDS011;40971;44.702;11.030;2022-10-16T03:21:30;35.28;;;18.95;;
55076;SDS011;40971;44.702;11.030;2022-10-16T03:23:55;40.22;;;17.60;;
55076;SDS011;40971;44.702;11.030;2022-10-16T03:26:20;39.75;;;21.05;;
55076;SDS011;40971;44.702;11.030;2022-10-16T03:28:46;36.42;;;20.77;;
55076;SDS011;40971;44.702;11.030;2022-10-16T03:31:11;43.25;;;22.70;;
55076;SDS011;40971;44.702;11.030;2022-10-16T03:33:37;40.30;;;20.98;;
55076;SDS011;40971;44.702;11.030;2022-10-16T03:36:02;40.60;;;22.25;;
55076;SDS011;40971;44.702;11.030;2022-10-16T03:38:28;38.97;;;21.65;;
55076;SDS011;40971;44.702;11.030;2022-10-16T03:40:53;40.13;;;21.77;;
55076;SDS011;40971;44.702;11.030;2022-10-16T03:43:19;40.10;;;22.15;;
55076;SDS011;40971;44.702;11.030;2022-10-16T03:45:44;43.10;;;20.85;;
55076;SDS011;40971;44.702;11.030;2022-10-16T03:48:10;40.35;;;20.77;;
55076;SDS011;40971;44.702;11.030;2022-10-16T03:50:36;43.88;;;21.30;;
55076;SDS011;40971;44.702;11.030;2022-10-16T03:53:02;32.58;;;18.55;;
55076;SDS011;40971;44.702;11.030;2022-10-16T03:55:27;39.97;;;20.35;;
55076;SDS011;40971;44.702;11.030;2022-10-16T03:57:53;34.13;;;18.55;;
55076;SDS011;40971;44.702;11.030;2022-10-16T04:00:18;41.08;;;21.73;;
55076;SDS011;40971;44.702;11.030;2022-10-16T04:02:44;46.05;;;22.67;;
55076;SDS011;40971;44.702;11.030;2022-10-16T04:05:09;44.28;;;21.65;;
55076;SDS011;40971;44.702;11.030;2022-10-16T04:07:35;46.65;;;23.50;;
55076;SDS011;40971;44.702;11.030;2022-10-16T04:10:01;44.45;;;23.17;;
55076;SDS011;40971;44.702;11.030;2022-10-16T04:12:26;41.90;;;22.85;;
55076;SDS011;40971;44.702;11.030;2022-10-16T04:14:52;41.78;;;23.27;;
55076;SDS011;40971;44.702;11.030;2022-10-16T04:17:17;50.08;;;23.80;;
55076;SDS011;40971;44.702;11.030;2022-10-16T04:19:42;42.40;;;21.65;;
55076;SDS011;40971;44.702;11.030;2022-10-16T04:22:08;39.13;;;21.50;;
55076;SDS011;40971;44.702;11.030;2022-10-16T04:24:33;43.58;;;21.15;;
55076;SDS011;40971;44.702;11.030;2022-10-16T04:26:59;41.40;;;20.83;;
55076;SDS011;40971;44.702;11.030;2022-10-16T04:29:24;45.47;;;20.77;;
55076;SDS011;40971;44.702;11.030;2022-10-16T04:31:50;43.45;;;23.45;;
55076;SDS011;40971;44.702;11.030;2022-10-16T04:34:15;38.67;;;20.15;;
55076;SDS011;40971;44.702;11.030;2022-10-16T04:36:41;39.65;;;21.13;;
55076;SDS011;40971;44.702;11.030;2022-10-16T04:39:06;41.88;;;21.92;;
55076;SDS011;40971;44.702;11.030;2022-10-16T04:41:32;37.58;;;20.17;;
55076;SDS011;40971;44.702;11.030;2022-10-16T04:43:57;31.33;;;16.35;;
55076;SDS011;40971;44.702;11.030;2022-10-16T04:46:23;33.28;;;17.33;;
55076;SDS011;40971;44.702;11.030;2022-10-16T04:48:48;41.50;;;20.23;;
55076;SDS011;40971;44.702;11.030;2022-10-16T04:51:13;34.47;;;19.25;;
55076;SDS011;40971;44.702;11.030;2022-10-16T04:53:39;43.95;;;22.30;;
55076;SDS011;40971;44.702;11.030;2022-10-16T04:56:04;43.95;;;22.25;;
55076;SDS011;40971;44.702;11.030;2022-10-16T04:58:30;48.05;;;22.38;;
55076;SDS011;40971;44.702;11.030;2022-10-16T05:00:55;45.85;;;23.45;;
55076;SDS011;40971;44.702;11.030;2022-10-16T05:03:21;47.47;;;25.25;;
55076;SDS011;40971;44.702;11.030;2022-10-16T05:05:46;43.30;;;25.58;;
55076;SDS011;40971;44.702;11.030;2022-10-16T05:08:12;54.92;;;23.23;;
55076;SDS011;40971;44.702;11.030;2022-10-16T05:10:40;56.13;;;25.25;;
55076;SDS011;40971;44.702;11.030;2022-10-16T05:13:06;42.40;;;23.23;;
55076;SDS011;40971;44.702;11.030;2022-10-16T05:15:32;47.05;;;23.65;;
55076;SDS011;40971;44.702;11.030;2022-10-16T05:17:58;45.92;;;22.60;;
55076;SDS011;40971;44.702;11.030;2022-10-16T05:20:23;49.33;;;22.30;;
55076;SDS011;40971;44.702;11.030;2022-10-16T05:22:49;54.83;;;25.00;;
55076;SDS011;40971;44.702;11.030;2022-10-16T05:25:14;61.72;;;28.42;;
55076;SDS011;40971;44.702;11.030;2022-10-16T05:27:40;55.40;;;25.42;;
55076;SDS011;40971;44.702;11.030;2022-10-16T05:30:05;55.60;;;27.25;;
55076;SDS011;40971;44.702;11.030;2022-10-16T05:32:32;45.80;;;24.02;;
55076;SDS011;40971;44.702;11.030;2022-10-16T05:35:00;48.50;;;23.35;;
55076;SDS011;40971;44.702;11.030;2022-10-16T05:37:27;46.00;;;22.90;;
55076;SDS011;40971;44.702;11.030;2022-10-16T05:39:52;56.22;;;24.63;;
55076;SDS011;40971;44.702;11.030;2022-10-16T05:42:18;45.50;;;22.23;;
55076;SDS011;40971;44.702;11.030;2022-10-16T05:44:43;45.13;;;24.13;;
55076;SDS011;40971;44.702;11.030;2022-10-16T05:47:09;44.80;;;22.60;;
55076;SDS011;40971;44.702;11.030;2022-10-16T05:49:35;50.65;;;24.55;;
55076;SDS011;40971;44.702;11.030;2022-10-16T05:52:01;51.08;;;25.48;;
55076;SDS011;40971;44.702;11.030;2022-10-16T05:54:27;52.70;;;23.70;;
55076;SDS011;40971;44.702;11.030;2022-10-16T05:56:52;51.13;;;25.63;;
55076;SDS011;40971;44.702;11.030;2022-10-16T05:59:18;48.50;;;23.05;;
55076;SDS011;40971;44.702;11.030;2022-10-16T06:01:43;51.90;;;23.52;;
55076;SDS011;40971;44.702;11.030;2022-10-16T06:04:09;52.83;;;24.77;;
55076;SDS011;40971;44.702;11.030;2022-10-16T06:06:34;52.42;;;25.08;;
55076;SDS011;40971;44.702;11.030;2022-10-16T06:09:01;73.35;;;23.33;;
55076;SDS011;40971;44.702;11.030;2022-10-16T06:11:28;51.65;;;26.00;;
55076;SDS011;40971;44.702;11.030;2022-10-16T06:13:56;41.42;;;22.02;;
55076;SDS011;40971;44.702;11.030;2022-10-16T06:16:23;41.67;;;20.77;;
55076;SDS011;40971;44.702;11.030;2022-10-16T06:18:53;47.72;;;22.38;;
55076;SDS011;40971;44.702;11.030;2022-10-16T06:21:22;41.33;;;21.70;;
55076;SDS011;40971;44.702;11.030;2022-10-16T06:23:52;45.72;;;22.52;;
55076;SDS011;40971;44.702;11.030;2022-10-16T06:26:19;44.70;;;22.55;;
55076;SDS011;40971;44.702;11.030;2022-10-16T06:28:46;41.63;;;22.38;;
55076;SDS011;40971;44.702;11.030;2022-10-16T06:31:12;58.28;;;24.20;;
55076;SDS011;40971;44.702;11.030;2022-10-16T06:33:38;45.72;;;23.77;;
55076;SDS011;40971;44.702;11.030;2022-10-16T06:36:08;45.45;;;23.63;;
55076;SDS011;40971;44.702;11.030;2022-10-16T06:38:39;45.47;;;23.50;;
55076;SDS011;40971;44.702;11.030;2022-10-16T06:41:05;41.95;;;22.48;;
55076;SDS011;40971;44.702;11.030;2022-10-16T06:43:33;44.40;;;21.77;;
55076;SDS011;40971;44.702;11.030;2022-10-16T06:46:00;42.80;;;21.52;;
55076;SDS011;40971;44.702;11.030;2022-10-16T06:48:27;45.03;;;22.55;;
55076;SDS011;40971;44.702;11.030;2022-10-16T06:51:00;47.75;;;25.05;;
55076;SDS011;40971;44.702;11.030;2022-10-16T06:53:28;47.85;;;26.83;;
55076;SDS011;40971;44.702;11.030;2022-10-16T06:55:55;57.00;;;28.27;;
55076;SDS011;40971;44.702;11.030;2022-10-16T06:58:21;58.20;;;28.88;;
55076;SDS011;40971;44.702;11.030;2022-10-16T07:00:47;62.83;;;30.33;;
55076;SDS011;40971;44.702;11.030;2022-10-16T07:03:14;58.85;;;30.75;;
55076;SDS011;40971;44.702;11.030;2022-10-16T07:05:40;70.45;;;32.28;;
55076;SDS011;40971;44.702;11.030;2022-10-16T07:08:06;58.22;;;31.55;;
55076;SDS011;40971;44.702;11.030;2022-10-16T07:10:33;56.13;;;30.83;;
55076;SDS011;40971;44.702;11.030;2022-10-16T07:12:58;59.75;;;30.30;;
55076;SDS011;40971;44.702;11.030;2022-10-16T07:15:24;60.10;;;30.50;;
55076;SDS011;40971;44.702;11.030;2022-10-16T07:17:50;77.13;;;29.73;;
55076;SDS011;40971;44.702;11.030;2022-10-16T07:20:16;58.25;;;30.67;;
55076;SDS011;40971;44.702;11.030;2022-10-16T07:22:41;70.07;;;30.20;;
55076;SDS011;40971;44.702;11.030;2022-10-16T07:25:07;65.40;;;29.25;;
55076;SDS011;40971;44.702;11.030;2022-10-16T07:27:32;57.72;;;28.60;;
55076;SDS011;40971;44.702;11.030;2022-10-16T07:29:59;59.05;;;28.85;;
55076;SDS011;40971;44.702;11.030;2022-10-16T07:32:24;54.90;;;27.70;;
55076;SDS011;40971;44.702;11.030;2022-10-16T07:34:51;56.85;;;26.38;;
55076;SDS011;40971;44.702;11.030;2022-10-16T07:37:17;57.88;;;25.35;;
55076;SDS011;40971;44.702;11.030;2022-10-16T07:39:42;49.67;;;26.10;;
55076;SDS011;40971;44.702;11.030;2022-10-16T07:42:07;43.95;;;26.25;;
55076;SDS011;40971;44.702;11.030;2022-10-16T07:44:33;49.58;;;27.25;;
55076;SDS011;40971;44.702;11.030;2022-10-16T07:46:58;48.83;;;26.00;;
55076;SDS011;40971;44.702;11.030;2022-10-16T07:49:24;51.10;;;24.33;;
55076;SDS011;40971;44.702;11.030;2022-10-16T07:51:49;65.82;;;26.45;;
55076;SDS011;40971;44.702;11.030;2022-10-16T07:54:15;59.65;;;26.58;;
55076;SDS011;40971;44.702;11.030;2022-10-16T07:56:40;53.83;;;28.80;;
55076;SDS011;40971;44.702;11.030;2022-10-16T07:59:06;57.00;;;28.83;;
55076;SDS011;40971;44.702;11.030;2022-10-16T08:01:31;54.13;;;29.15;;
55076;SDS011;40971;44.702;11.030;2022-10-16T08:03:57;55.35;;;29.48;;
55076;SDS011;40971;44.702;11.030;2022-10-16T08:06:22;49.30;;;27.60;;
55076;SDS011;40971;44.702;11.030;2022-10-16T08:08:48;52.60;;;29.42;;
55076;SDS011;40971;44.702;11.030;2022-10-16T08:11:14;58.97;;;30.63;;
55076;SDS011;40971;44.702;11.030;2022-10-16T08:13:40;54.50;;;29.95;;
55076;SDS011;40971;44.702;11.030;2022-10-16T08:16:06;57.88;;;31.15;;
55076;SDS011;40971;44.702;11.030;2022-10-16T08:18:37;60.70;;;30.77;;
55076;SDS011;40971;44.702;11.030;2022-10-16T08:21:04;63.67;;;33.60;;
55076;SDS011;40971;44.702;11.030;2022-10-16T08:23:31;66.57;;;32.40;;
55076;SDS011;40971;44.702;11.030;2022-10-16T08:26:01;55.63;;;29.48;;
55076;SDS011;40971;44.702;11.030;2022-10-16T08:28:28;62.65;;;32.40;;
55076;SDS011;40971;44.702;11.030;2022-10-16T08:30:54;55.40;;;31.90;;
55076;SDS011;40971;44.702;11.030;2022-10-16T08:33:21;59.67;;;33.45;;
55076;SDS011;40971;44.702;11.030;2022-10-16T08:35:51;59.78;;;32.10;;
55076;SDS011;40971;44.702;11.030;2022-10-16T08:38:18;61.03;;;33.95;;
55076;SDS011;40971;44.702;11.030;2022-10-16T08:40:44;64.82;;;33.28;;
55076;SDS011;40971;44.702;11.030;2022-10-16T08:43:14;66.18;;;33.70;;
55076;SDS011;40971;44.702;11.030;2022-10-16T08:48:55;72.68;;;35.53;;
55076;SDS011;40971;44.702;11.030;2022-10-16T08:51:25;91.72;;;34.03;;
55076;SDS011;40971;44.702;11.030;2022-10-16T08:53:56;61.45;;;32.05;;
55076;SDS011;40971;44.702;11.030;2022-10-16T08:56:39;63.28;;;32.45;;
55076;SDS011;40971;44.702;11.030;2022-10-16T08:59:06;63.55;;;33.17;;
55076;SDS011;40971;44.702;11.030;2022-10-16T09:01:37;63.47;;;33.63;;
55076;SDS011;40971;44.702;11.030;2022-10-16T09:04:17;63.70;;;34.60;;
55076;SDS011;40971;44.702;11.030;2022-10-16T09:07:40;67.93;;;31.65;;
55076;SDS011;40971;44.702;11.030;2022-10-16T09:10:12;67.20;;;32.40;;
55076;SDS011;40971;44.702;11.030;2022-10-16T09:13:42;63.13;;;32.67;;
55076;SDS011;40971;44.702;11.030;2022-10-16T09:19:00;67.95;;;31.80;;
55076;SDS011;40971;44.702;11.030;2022-10-16T09:21:42;62.53;;;30.98;;
55076;SDS011;40971;44.702;11.030;2022-10-16T09:24:20;57.45;;;31.33;;
55076;SDS011;40971;44.702;11.030;2022-10-16T09:26:48;64.88;;;34.60;;
55076;SDS011;40971;44.702;11.030;2022-10-16T09:29:15;64.57;;;31.77;;
55076;SDS011;40971;44.702;11.030;2022-10-16T09:31:42;64.55;;;32.70;;
55076;SDS011;40971;44.702;11.030;2022-10-16T09:34:20;54.85;;;30.98;;
55076;SDS011;40971;44.702;11.030;2022-10-16T09:36:59;57.22;;;31.35;;
55076;SDS011;40971;44.702;11.030;2022-10-16T09:39:26;54.15;;;31.55;;
55076;SDS011;40971;44.702;11.030;2022-10-16T09:41:52;49.60;;;28.85;;
55076;SDS011;40971;44.702;11.030;2022-10-16T09:44:25;56.85;;;29.90;;
55076;SDS011;40971;44.702;11.030;2022-10-16T09:47:10;58.88;;;29.60;;
55076;SDS011;40971;44.702;11.030;2022-10-16T09:49:42;53.10;;;30.33;;
55076;SDS011;40971;44.702;11.030;2022-10-16T09:52:16;55.13;;;30.50;;
55076;SDS011;40971;44.702;11.030;2022-10-16T09:57:16;84.63;;;32.83;;
55076;SDS011;40971;44.702;11.030;2022-10-16T09:59:46;62.78;;;30.58;;
55076;SDS011;40971;44.702;11.030;2022-10-16T10:02:13;78.38;;;30.60;;
55076;SDS011;40971;44.702;11.030;2022-10-16T10:04:46;55.22;;;30.23;;
55076;SDS011;40971;44.702;11.030;2022-10-16T10:07:23;59.53;;;30.80;;
55076;SDS011;40971;44.702;11.030;2022-10-16T10:09:51;68.05;;;31.17;;
55076;SDS011;40971;44.702;11.030;2022-10-16T10:12:21;56.95;;;31.13;;
55076;SDS011;40971;44.702;11.030;2022-10-16T10:14:50;58.63;;;31.70;;
55076;SDS011;40971;44.702;11.030;2022-10-16T10:17:21;63.40;;;28.60;;
55076;SDS011;40971;44.702;11.030;2022-10-16T10:19:55;57.63;;;29.40;;
55076;SDS011;40971;44.702;11.030;2022-10-16T10:22:46;67.70;;;31.42;;
55076;SDS011;40971;44.702;11.030;2022-10-16T10:46:48;49.53;;;25.55;;
55076;SDS011;40971;44.702;11.030;2022-10-16T10:57:32;47.08;;;24.85;;
55076;SDS011;40971;44.702;11.030;2022-10-16T11:00:21;47.90;;;24.40;;
55076;SDS011;40971;44.702;11.030;2022-10-16T11:05:48;51.33;;;24.63;;
55076;SDS011;40971;44.702;11.030;2022-10-16T11:09:00;44.13;;;23.52;;
55076;SDS011;40971;44.702;11.030;2022-10-16T11:11:20;36.92;;;21.45;;
55076;SDS011;40971;44.702;11.030;2022-10-16T11:16:30;46.03;;;21.42;;
55076;SDS011;40971;44.702;11.030;2022-10-16T11:21:36;36.97;;;22.40;;
55076;SDS011;40971;44.702;11.030;2022-10-16T11:24:16;59.13;;;22.80;;
55076;SDS011;40971;44.702;11.030;2022-10-16T11:27:06;42.05;;;21.65;;
55076;SDS011;40971;44.702;11.030;2022-10-16T11:29:34;35.58;;;18.88;;
55076;SDS011;40971;44.702;11.030;2022-10-16T11:32:11;42.42;;;20.15;;
55076;SDS011;40971;44.702;11.030;2022-10-16T11:34:50;34.83;;;17.55;;
55076;SDS011;40971;44.702;11.030;2022-10-16T11:37:21;35.63;;;18.00;;
55076;SDS011;40971;44.702;11.030;2022-10-16T11:39:52;36.15;;;18.60;;
55076;SDS011;40971;44.702;11.030;2022-10-16T11:42:44;39.10;;;17.52;;
55076;SDS011;40971;44.702;11.030;2022-10-16T11:48:12;31.98;;;15.68;;
55076;SDS011;40971;44.702;11.030;2022-10-16T11:53:42;31.48;;;15.18;;
55076;SDS011;40971;44.702;11.030;2022-10-16T11:56:16;27.25;;;12.90;;
55076;SDS011;40971;44.702;11.030;2022-10-16T11:58:57;24.90;;;12.85;;
55076;SDS011;40971;44.702;11.030;2022-10-16T12:07:05;27.98;;;15.18;;
55076;SDS011;40971;44.702;11.030;2022-10-16T12:09:53;25.25;;;14.57;;
55076;SDS011;40971;44.702;11.030;2022-10-16T12:12:28;27.48;;;14.82;;
55076;SDS011;40971;44.702;11.030;2022-10-16T12:15:18;28.75;;;13.35;;
55076;SDS011;40971;44.702;11.030;2022-10-16T12:17:43;23.25;;;12.55;;
55076;SDS011;40971;44.702;11.030;2022-10-16T12:22:41;29.88;;;13.10;;
55076;SDS011;40971;44.702;11.030;2022-10-16T12:27:53;34.72;;;12.07;;
55076;SDS011;40971;44.702;11.030;2022-10-16T12:30:22;25.58;;;13.55;;
55076;SDS011;40971;44.702;11.030;2022-10-16T12:32:53;38.20;;;11.70;;
55076;SDS011;40971;44.702;11.030;2022-10-16T12:35:26;30.27;;;13.50;;
55076;SDS011;40971;44.702;11.030;2022-10-16T12:40:56;24.70;;;12.15;;
55076;SDS011;40971;44.702;11.030;2022-10-16T12:43:35;25.10;;;11.38;;
55076;SDS011;40971;44.702;11.030;2022-10-16T12:46:04;27.40;;;13.63;;
55076;SDS011;40971;44.702;11.030;2022-10-16T12:48:45;28.25;;;12.55;;
55076;SDS011;40971;44.702;11.030;2022-10-16T12:51:23;28.40;;;14.02;;
55076;SDS011;40971;44.702;11.030;2022-10-16T12:56:57;26.13;;;14.10;;
55076;SDS011;40971;44.702;11.030;2022-10-16T13:05:21;35.58;;;11.93;;
55076;SDS011;40971;44.702;11.030;2022-10-16T13:10:51;19.67;;;11.00;;
55076;SDS011;40971;44.702;11.030;2022-10-16T13:16:24;19.08;;;7.95;;
55076;SDS011;40971;44.702;11.030;2022-10-16T13:19:14;20.65;;;9.80;;
55076;SDS011;40971;44.702;11.030;2022-10-16T13:31:14;24.27;;;11.25;;
55076;SDS011;40971;44.702;11.030;2022-10-16T13:33:29;25.77;;;10.70;;
55076;SDS011;40971;44.702;11.030;2022-10-16T13:35:56;30.42;;;11.63;;
55076;SDS011;40971;44.702;11.030;2022-10-16T13:38:23;25.05;;;12.23;;
55076;SDS011;40971;44.702;11.030;2022-10-16T13:48:42;29.88;;;11.70;;
55076;SDS011;40971;44.702;11.030;2022-10-16T13:51:17;23.15;;;12.18;;
55076;SDS011;40971;44.702;11.030;2022-10-16T13:53:43;17.90;;;10.55;;
55076;SDS011;40971;44.702;11.030;2022-10-16T13:56:13;18.77;;;10.32;;
55076;SDS011;40971;44.702;11.030;2022-10-16T13:58:41;23.38;;;10.90;;
55076;SDS011;40971;44.702;11.030;2022-10-16T14:03:48;30.42;;;10.55;;
55076;SDS011;40971;44.702;11.030;2022-10-16T14:06:16;19.70;;;8.57;;
55076;SDS011;40971;44.702;11.030;2022-10-16T14:08:48;16.25;;;8.73;;
55076;SDS011;40971;44.702;11.030;2022-10-16T14:12:00;16.90;;;9.00;;
55076;SDS011;40971;44.702;11.030;2022-10-16T14:14:32;17.33;;;8.90;;
55076;SDS011;40971;44.702;11.030;2022-10-16T14:17:00;21.43;;;9.00;;
55076;SDS011;40971;44.702;11.030;2022-10-16T14:19:28;20.55;;;8.27;;
55076;SDS011;40971;44.702;11.030;2022-10-16T14:21:54;17.75;;;9.63;;
55076;SDS011;40971;44.702;11.030;2022-10-16T14:27:02;26.70;;;11.55;;
55076;SDS011;40971;44.702;11.030;2022-10-16T14:29:46;26.13;;;11.35;;
55076;SDS011;40971;44.702;11.030;2022-10-16T14:32:20;22.20;;;10.75;;
55076;SDS011;40971;44.702;11.030;2022-10-16T14:34:53;21.50;;;12.13;;
55076;SDS011;40971;44.702;11.030;2022-10-16T14:37:28;22.13;;;10.82;;
55076;SDS011;40971;44.702;11.030;2022-10-16T14:39:55;19.90;;;11.13;;
55076;SDS011;40971;44.702;11.030;2022-10-16T14:42:23;23.67;;;10.93;;
55076;SDS011;40971;44.702;11.030;2022-10-16T14:44:50;18.40;;;9.32;;
55076;SDS011;40971;44.702;11.030;2022-10-16T14:47:18;17.02;;;9.45;;
55076;SDS011;40971;44.702;11.030;2022-10-16T14:49:49;21.60;;;9.98;;
55076;SDS011;40971;44.702;11.030;2022-10-16T14:52:15;18.15;;;9.63;;
55076;SDS011;40971;44.702;11.030;2022-10-16T14:54:40;22.90;;;11.55;;
55076;SDS011;40971;44.702;11.030;2022-10-16T14:57:13;23.48;;;10.07;;
55076;SDS011;40971;44.702;11.030;2022-10-16T14:59:43;21.90;;;9.80;;
55076;SDS011;40971;44.702;11.030;2022-10-16T15:02:27;16.80;;;9.20;;
55076;SDS011;40971;44.702;11.030;2022-10-16T15:04:54;22.15;;;9.88;;
55076;SDS011;40971;44.702;11.030;2022-10-16T15:07:20;24.80;;;9.85;;
55076;SDS011;40971;44.702;11.030;2022-10-16T15:09:45;22.75;;;10.63;;
55076;SDS011;40971;44.702;11.030;2022-10-16T15:12:11;22.95;;;10.88;;
55076;SDS011;40971;44.702;11.030;2022-10-16T15:14:37;19.30;;;10.45;;
55076;SDS011;40971;44.702;11.030;2022-10-16T15:17:02;23.17;;;11.00;;
55076;SDS011;40971;44.702;11.030;2022-10-16T15:19:28;22.90;;;9.63;;
55076;SDS011;40971;44.702;11.030;2022-10-16T15:21:54;22.13;;;10.13;;
55076;SDS011;40971;44.702;11.030;2022-10-16T15:24:19;18.75;;;9.45;;
55076;SDS011;40971;44.702;11.030;2022-10-16T15:26:45;17.45;;;8.95;;
55076;SDS011;40971;44.702;11.030;2022-10-16T15:29:14;19.50;;;10.82;;
55076;SDS011;40971;44.702;11.030;2022-10-16T15:31:40;21.52;;;9.57;;
55076;SDS011;40971;44.702;11.030;2022-10-16T15:34:08;20.15;;;9.25;;
55076;SDS011;40971;44.702;11.030;2022-10-16T15:36:35;18.02;;;9.10;;
55076;SDS011;40971;44.702;11.030;2022-10-16T15:39:03;18.77;;;9.55;;
55076;SDS011;40971;44.702;11.030;2022-10-16T15:41:29;16.63;;;8.80;;
55076;SDS011;40971;44.702;11.030;2022-10-16T15:43:55;17.48;;;10.27;;
55076;SDS011;40971;44.702;11.030;2022-10-16T15:46:21;14.73;;;8.35;;
55076;SDS011;40971;44.702;11.030;2022-10-16T15:48:49;16.42;;;8.90;;
55076;SDS011;40971;44.702;11.030;2022-10-16T15:51:15;15.60;;;8.63;;
55076;SDS011;40971;44.702;11.030;2022-10-16T15:53:41;17.30;;;8.63;;
55076;SDS011;40971;44.702;11.030;2022-10-16T15:56:07;15.65;;;8.23;;
55076;SDS011;40971;44.702;11.030;2022-10-16T15:58:34;18.48;;;9.07;;
55076;SDS011;40971;44.702;11.030;2022-10-16T16:01:00;25.10;;;10.20;;
55076;SDS011;40971;44.702;11.030;2022-10-16T16:03:28;25.98;;;10.75;;
55076;SDS011;40971;44.702;11.030;2022-10-16T16:05:54;20.23;;;9.43;;
55076;SDS011;40971;44.702;11.030;2022-10-16T16:08:20;19.02;;;10.13;;
55076;SDS011;40971;44.702;11.030;2022-10-16T16:10:56;21.27;;;9.77;;
55076;SDS011;40971;44.702;11.030;2022-10-16T16:15:58;27.77;;;10.52;;
55076;SDS011;40971;44.702;11.030;2022-10-16T16:18:23;24.45;;;10.35;;
55076;SDS011;40971;44.702;11.030;2022-10-16T16:20:50;22.52;;;11.05;;
55076;SDS011;40971;44.702;11.030;2022-10-16T16:23:16;21.88;;;10.50;;
55076;SDS011;40971;44.702;11.030;2022-10-16T16:25:41;23.25;;;11.25;;
55076;SDS011;40971;44.702;11.030;2022-10-16T16:28:07;27.45;;;11.52;;
55076;SDS011;40971;44.702;11.030;2022-10-16T16:30:35;23.40;;;11.80;;